createdAt,value
2019-01-12T07:15:38.557Z,21.23
2019-01-12T07:18:12.349Z,35.43
2019-01-12T07:20:46.004Z,17.83
2019-01-12T07:23:19.732Z,18.83
2019-01-12T07:25:53.484Z,21.00
2019-01-12T07:28:27.155Z,20.60
2019-01-12T07:31:00.923Z,23.03
2019-01-12T07:33:34.653Z,15.17
2019-01-12T07:36:08.397Z,22.27
2019-01-12T07:38:42.057Z,20.50
2019-01-12T07:41:15.823Z,19.97
2019-01-12T07:43:49.738Z,18.17
2019-01-12T07:46:23.468Z,17.77
2019-01-12T07:48:57.280Z,20.00
2019-01-12T07:51:31.849Z,20.30
2019-01-12T07:54:06.372Z,20.43
2019-01-12T07:56:40.024Z,19.03
2019-01-12T07:59:13.745Z,18.50
2019-01-12T08:01:47.455Z,15.43
2019-01-12T08:04:21.128Z,19.83
2019-01-12T08:06:54.864Z,18.33
2019-01-12T08:09:28.476Z,21.83
2019-01-12T08:12:02.060Z,19.77
2019-01-12T08:14:35.721Z,16.17
2019-01-12T08:17:10.195Z,13.63
2019-01-12T08:19:43.959Z,14.93
2019-01-12T08:22:17.600Z,18.93
2019-01-12T08:24:51.172Z,18.67
2019-01-12T08:27:24.828Z,17.10
2019-01-12T08:29:58.454Z,19.13
2019-01-12T08:32:32.195Z,14.90
2019-01-12T08:35:05.920Z,14.70
2019-01-12T08:37:39.672Z,15.77
2019-01-12T08:40:13.561Z,16.33
2019-01-12T08:42:47.288Z,17.33
2019-01-12T08:45:20.955Z,16.17
2019-01-12T08:47:54.744Z,20.07
2019-01-12T08:50:28.476Z,15.13
2019-01-12T08:53:02.194Z,19.37
2019-01-12T08:55:35.868Z,14.53
2019-01-12T08:58:09.612Z,16.23
2019-01-12T09:00:43.255Z,17.60
2019-01-12T09:03:17.016Z,17.43
2019-01-12T09:05:50.632Z,19.17
2019-01-12T09:08:24.373Z,15.63
2019-01-12T09:10:58.625Z,18.93
2019-01-12T09:13:33.152Z,17.33
2019-01-12T09:16:06.831Z,15.67
2019-01-12T09:18:40.548Z,16.10
2019-01-12T09:21:14.104Z,16.23
2019-01-12T09:23:48.520Z,16.20
2019-01-12T09:26:22.292Z,16.93
2019-01-12T09:28:55.970Z,15.90
2019-01-12T09:31:29.745Z,20.23
2019-01-12T09:34:04.245Z,15.97
2019-01-12T09:36:38.727Z,21.80
2019-01-12T09:39:12.442Z,15.37
2019-01-12T09:41:47.037Z,18.50
2019-01-12T09:44:21.340Z,18.60
2019-01-12T09:46:55.033Z,16.30
2019-01-12T09:49:28.654Z,14.97
2019-01-12T09:52:03.161Z,13.60
2019-01-12T09:54:37.012Z,15.70
2019-01-12T09:57:10.768Z,14.97
2019-01-12T09:59:44.730Z,13.83
2019-01-12T10:02:18.420Z,13.77
2019-01-12T10:04:52.132Z,14.90
2019-01-12T10:07:25.998Z,20.43
2019-01-12T10:09:59.679Z,14.03
2019-01-12T10:12:33.405Z,14.63
2019-01-12T10:15:07.028Z,17.23
2019-01-12T10:17:41.533Z,14.10
2019-01-12T10:20:15.285Z,20.40
2019-01-12T10:22:48.996Z,16.17
2019-01-12T10:25:22.833Z,19.13
2019-01-12T10:27:56.592Z,17.60
2019-01-12T10:30:30.272Z,16.20
2019-01-12T10:33:03.975Z,15.13
2019-01-12T10:35:37.689Z,20.10
2019-01-12T10:38:11.416Z,16.10
2019-01-12T10:40:44.984Z,17.27
2019-01-12T10:43:18.688Z,18.63
2019-01-12T10:45:53.185Z,24.77
2019-01-12T10:48:26.868Z,18.93
2019-01-12T10:51:01.374Z,13.73
2019-01-12T10:53:35.897Z,13.90
2019-01-12T10:56:09.649Z,17.83
2019-01-12T10:58:43.297Z,14.57
2019-01-12T11:01:17.030Z,14.20
2019-01-12T11:03:50.733Z,15.73
2019-01-12T11:06:24.508Z,14.83
2019-01-12T11:08:58.108Z,13.07
2019-01-12T11:11:31.942Z,10.20
2019-01-12T11:14:05.724Z,8.63
2019-01-12T11:16:39.408Z,9.67
2019-01-12T11:19:13.108Z,8.50
2019-01-12T11:21:46.871Z,9.50
2019-01-12T11:24:20.647Z,9.77
2019-01-12T11:26:54.353Z,9.73
2019-01-12T11:29:28.064Z,10.70
2019-01-12T11:32:02.792Z,10.67
2019-01-12T11:34:36.506Z,8.47
2019-01-12T11:37:10.211Z,7.70
2019-01-12T11:39:43.788Z,6.70
2019-01-12T11:42:17.568Z,9.50
2019-01-12T11:44:51.175Z,6.00
2019-01-12T11:47:24.772Z,13.57
2019-01-12T11:49:58.516Z,9.00
2019-01-12T11:52:32.209Z,9.97
2019-01-12T11:55:05.961Z,14.20
2019-01-12T11:57:39.654Z,11.20
2019-01-12T12:00:24.800Z,10.03
2019-01-12T12:02:58.505Z,10.10
2019-01-12T12:05:33.012Z,11.53
2019-01-12T12:08:06.668Z,10.77
2019-01-12T12:10:40.382Z,12.53
2019-01-12T12:13:14.281Z,10.53
2019-01-12T12:15:48.749Z,12.83
2019-01-12T12:18:22.419Z,10.43
2019-01-12T12:20:56.200Z,14.17
2019-01-12T12:23:30.008Z,12.47
2019-01-12T12:26:04.518Z,13.60
2019-01-12T12:28:38.160Z,10.10
2019-01-12T12:31:11.756Z,12.60
2019-01-12T12:33:45.488Z,10.43
2019-01-12T12:36:19.238Z,11.13
2019-01-12T12:38:53.804Z,15.70
2019-01-12T12:41:27.496Z,14.03
2019-01-12T12:44:01.285Z,15.80
2019-01-12T12:46:34.951Z,12.87
2019-01-12T12:49:08.824Z,14.07
2019-01-12T12:51:43.288Z,18.63
2019-01-12T12:54:17.008Z,15.67
2019-01-12T12:56:50.645Z,14.73
2019-01-12T12:59:25.161Z,16.80
2019-01-12T13:01:58.900Z,16.77
2019-01-12T13:04:32.584Z,13.83
2019-01-12T13:07:06.368Z,18.20
2019-01-12T13:09:39.921Z,17.87
2019-01-12T13:12:13.769Z,17.60
2019-01-12T13:14:47.385Z,20.43
2019-01-12T13:17:21.152Z,17.60
2019-01-12T13:19:55.649Z,16.13
2019-01-12T13:22:29.370Z,18.00
2019-01-12T13:25:03.140Z,15.30
2019-01-12T13:27:39.956Z,18.13
2019-01-12T13:30:14.943Z,20.13
2019-01-12T13:32:49.433Z,18.03
2019-01-12T13:35:23.168Z,16.67
2019-01-12T13:37:57.776Z,18.77
2019-01-12T13:40:31.494Z,17.03
2019-01-12T13:43:05.108Z,15.73
2019-01-12T13:45:38.748Z,16.60
2019-01-12T13:48:13.216Z,17.50
2019-01-12T13:50:46.928Z,21.30
2019-01-12T13:53:20.538Z,19.63
2019-01-12T13:55:54.263Z,22.30
2019-01-12T13:58:28.840Z,25.57
2019-01-12T14:01:02.605Z,25.50
2019-01-12T14:03:36.412Z,28.73
2019-01-12T14:06:10.055Z,18.23
2019-01-12T14:08:43.913Z,19.03
2019-01-12T14:11:17.608Z,18.60
2019-01-12T14:13:51.477Z,17.07
2019-01-12T14:16:25.293Z,16.67
2019-01-12T14:18:59.024Z,19.53
2019-01-12T14:21:32.781Z,16.70
2019-01-12T14:24:06.572Z,19.97
2019-01-12T14:26:40.316Z,19.07
2019-01-12T14:29:14.063Z,17.93
2019-01-12T14:31:47.783Z,18.87
2019-01-12T14:34:21.629Z,17.03
2019-01-12T14:36:55.324Z,19.27
2019-01-12T14:39:29.701Z,16.63
2019-01-12T14:42:04.182Z,20.77
2019-01-12T14:44:37.908Z,17.43
2019-01-12T14:47:11.627Z,16.20
2019-01-12T14:49:45.405Z,20.53
2019-01-12T14:52:19.036Z,18.43
2019-01-12T14:54:52.665Z,17.20
2019-01-12T14:57:27.264Z,17.03
2019-01-12T15:00:01.131Z,20.37
2019-01-12T15:02:35.600Z,13.07
2019-01-12T15:05:09.420Z,17.90
2019-01-12T15:07:43.928Z,16.80
2019-01-12T15:10:18.441Z,16.43
2019-01-12T15:12:52.265Z,18.00
2019-01-12T15:15:25.976Z,14.27
2019-01-12T15:17:59.837Z,17.10
2019-01-12T15:20:33.625Z,15.63
2019-01-12T15:23:08.161Z,19.07
2019-01-12T15:25:42.591Z,19.00
2019-01-12T15:28:17.120Z,15.43
2019-01-12T15:30:50.884Z,16.70
2019-01-12T15:33:24.717Z,21.00
2019-01-12T15:35:58.485Z,15.73
2019-01-12T15:38:32.965Z,17.33
2019-01-12T15:41:06.739Z,17.77
2019-01-12T15:43:40.622Z,18.27
2019-01-12T15:46:14.302Z,18.13
2019-01-12T15:48:48.021Z,16.33
2019-01-12T15:51:21.776Z,19.23
2019-01-12T15:53:56.337Z,21.83
2019-01-12T15:56:30.936Z,17.73
2019-01-12T15:59:04.632Z,19.63
2019-01-12T16:01:38.452Z,19.03
2019-01-12T16:04:13.096Z,16.93
2019-01-12T16:06:47.633Z,18.07
2019-01-12T16:09:22.148Z,19.17
2019-01-12T16:11:55.893Z,20.77
2019-01-12T16:14:29.673Z,17.10
2019-01-12T16:17:03.378Z,18.90
2019-01-12T16:19:37.055Z,16.70
2019-01-12T16:22:10.923Z,17.63
2019-01-12T16:24:44.679Z,17.33
2019-01-12T16:34:55.062Z,18.87
2019-01-12T16:37:28.790Z,14.13
2019-01-12T16:40:02.529Z,10.67
2019-01-12T16:42:37.113Z,14.37
2019-01-12T16:58:56.825Z,16.85
2019-01-12T17:01:30.692Z,9.10
2019-01-12T17:04:04.457Z,8.47
2019-01-12T17:06:38.121Z,5.00
2019-01-12T17:09:11.936Z,9.03
2019-01-12T17:11:45.691Z,7.00
2019-01-12T17:14:19.364Z,8.23
2019-01-12T17:16:53.868Z,6.70
2019-01-12T17:19:27.622Z,8.23
2019-01-12T17:22:01.557Z,8.20
2019-01-12T17:24:35.022Z,6.13
2019-01-12T17:27:09.624Z,4.87
2019-01-12T17:29:44.144Z,6.23
2019-01-12T17:32:17.823Z,6.23
2019-01-12T17:34:52.301Z,5.37
2019-01-12T17:37:26.135Z,6.60
2019-01-12T17:39:59.869Z,5.87
2019-01-12T17:42:33.723Z,7.50
2019-01-12T17:45:09.113Z,9.50
2019-01-12T17:47:42.810Z,7.50
2019-01-12T17:50:18.491Z,8.33
2019-01-12T17:52:53.193Z,3.93
2019-01-12T17:55:26.857Z,6.27
2019-01-12T17:58:00.753Z,9.90
2019-01-12T18:00:34.412Z,5.60
2019-01-12T18:03:08.309Z,7.47
2019-01-12T18:05:41.977Z,6.97
2019-01-12T18:08:15.661Z,5.50
2019-01-12T18:10:49.261Z,5.60
2019-01-12T18:13:23.098Z,6.23
2019-01-12T18:15:57.009Z,5.53
2019-01-12T18:18:31.600Z,5.07
2019-01-12T18:21:05.312Z,5.17
2019-01-12T18:23:39.002Z,7.00
2019-01-12T18:26:12.776Z,4.17
2019-01-12T18:28:51.477Z,5.47
2019-01-12T18:31:20.370Z,5.60
2019-01-12T18:33:54.055Z,4.90
2019-01-12T18:36:27.920Z,6.57
2019-01-12T18:39:01.698Z,5.53
2019-01-12T18:41:36.270Z,5.97
2019-01-12T18:44:10.472Z,5.37
2019-01-12T18:46:44.350Z,4.13
2019-01-12T18:49:17.993Z,5.13
2019-01-12T18:51:52.067Z,4.87
2019-01-12T18:54:25.786Z,5.43
2019-01-12T18:56:59.430Z,3.43
2019-01-12T19:00:18.368Z,4.60
2019-01-12T19:02:51.415Z,3.50
2019-01-12T19:05:32.422Z,4.13
2019-01-12T19:08:31.894Z,3.63
2019-01-12T19:11:06.386Z,4.20
2019-01-12T19:14:07.950Z,4.37
2019-01-12T19:16:42.638Z,3.37
2019-01-12T19:22:56.670Z,3.90
2019-01-12T19:25:39.482Z,3.63
2019-01-12T19:28:22.142Z,2.77
2019-01-12T19:33:46.030Z,4.17
2019-01-12T19:36:19.777Z,3.53
2019-01-12T19:38:53.449Z,3.63
2019-01-12T19:41:27.258Z,2.97
2019-01-12T19:44:02.049Z,4.27
2019-01-12T19:46:35.798Z,3.93
2019-01-12T19:49:09.623Z,5.07
2019-01-12T19:51:44.133Z,2.90
2019-01-12T19:54:18.066Z,4.00
2019-01-12T19:56:51.728Z,3.50
2019-01-12T19:59:25.370Z,3.13
2019-01-12T20:01:59.843Z,4.70
2019-01-12T20:04:34.356Z,4.70
2019-01-12T20:07:08.117Z,3.30
2019-01-12T20:09:41.842Z,3.83
2019-01-12T20:12:16.508Z,3.53
2019-01-12T20:14:50.237Z,3.50
2019-01-12T20:17:23.953Z,3.57
2019-01-12T20:19:57.562Z,5.70
2019-01-12T20:22:31.144Z,3.30
2019-01-12T20:25:05.032Z,3.27
2019-01-12T20:27:39.633Z,4.10
2019-01-12T20:30:31.630Z,4.10
2019-01-12T20:33:32.484Z,3.53
2019-01-12T20:36:23.644Z,2.80
2019-01-12T20:38:59.575Z,5.03
2019-01-12T20:41:51.185Z,3.70
2019-01-12T20:47:44.992Z,4.22
2019-01-12T20:50:19.412Z,3.53
2019-01-12T20:52:58.794Z,3.00
2019-01-12T20:55:36.633Z,2.17
2019-01-12T20:58:30.696Z,3.20
2019-01-12T21:01:12.713Z,3.40
2019-01-12T21:07:08.496Z,4.12
2019-01-12T21:13:28.532Z,3.80
2019-01-12T21:16:02.220Z,4.57
2019-01-12T21:18:35.840Z,4.40
2019-01-12T21:21:10.459Z,7.03
2019-01-12T21:23:44.165Z,3.90
2019-01-12T21:26:17.884Z,3.53
2019-01-12T21:28:52.372Z,4.53
2019-01-12T21:31:26.105Z,3.90
2019-01-12T21:33:59.883Z,3.90
2019-01-12T21:36:33.520Z,4.03
2019-01-12T21:39:07.221Z,4.93
2019-01-12T21:41:41.652Z,3.13
2019-01-12T21:44:16.195Z,3.33
2019-01-12T21:46:49.923Z,3.83
2019-01-12T21:49:23.641Z,4.07
2019-01-12T21:51:57.508Z,4.40
2019-01-12T21:54:31.426Z,3.07
2019-01-12T21:57:05.138Z,3.23
2019-01-12T21:59:42.562Z,4.00
2019-01-12T22:02:12.755Z,3.77
2019-01-12T22:04:46.355Z,4.23
2019-01-12T22:07:20.104Z,5.67
2019-01-12T22:09:54.608Z,3.93
2019-01-12T22:12:28.421Z,3.37
2019-01-12T22:15:02.132Z,4.67
2019-01-12T22:17:35.984Z,4.27
2019-01-12T22:20:16.721Z,3.73
2019-01-12T22:22:50.329Z,3.57
2019-01-12T22:25:24.076Z,4.63
2019-01-12T22:27:57.704Z,3.17
2019-01-12T22:30:31.520Z,2.90
2019-01-12T22:33:05.163Z,4.33
2019-01-12T22:35:38.884Z,4.60
2019-01-12T22:38:12.664Z,3.83
2019-01-12T22:40:46.396Z,3.40
2019-01-12T22:43:20.280Z,2.83
2019-01-12T22:45:54.829Z,3.60
2019-01-12T22:48:28.584Z,3.20
2019-01-12T22:51:02.244Z,4.33
2019-01-12T22:53:35.839Z,4.80
2019-01-12T22:56:10.268Z,2.90
2019-01-12T22:58:43.924Z,3.83
2019-01-12T23:01:18.824Z,3.90
2019-01-12T23:03:52.448Z,4.07
2019-01-12T23:06:26.059Z,3.33
2019-01-12T23:08:59.611Z,5.47
2019-01-12T23:11:34.146Z,4.17
2019-01-12T23:14:08.625Z,6.33
2019-01-12T23:16:42.383Z,4.50
2019-01-12T23:19:16.148Z,5.13
2019-01-12T23:21:50.573Z,4.30
2019-01-12T23:24:24.291Z,4.80
2019-01-12T23:26:58.004Z,4.13
2019-01-12T23:29:31.620Z,5.03
2019-01-12T23:32:06.120Z,4.20
2019-01-12T23:34:39.779Z,5.10
2019-01-12T23:37:13.579Z,3.70
2019-01-12T23:39:48.024Z,4.23
2019-01-12T23:42:24.499Z,4.30
2019-01-12T23:44:58.152Z,3.73
2019-01-12T23:47:31.858Z,5.07
2019-01-12T23:50:06.502Z,4.33
2019-01-12T23:52:40.380Z,3.80
2019-01-12T23:55:14.032Z,5.70
2019-01-12T23:57:47.811Z,4.57
